createdAt,value
2018-12-18T00:01:57.612Z,33.97
2018-12-18T00:04:25.190Z,34.80
2018-12-18T00:06:52.769Z,36.20
2018-12-18T00:09:20.435Z,35.93
2018-12-18T00:11:48.008Z,36.40
2018-12-18T00:14:15.653Z,35.30
2018-12-18T00:16:43.392Z,34.30
2018-12-18T00:19:10.964Z,31.33
2018-12-18T00:21:38.581Z,29.17
2018-12-18T00:24:06.226Z,31.53
2018-12-18T00:26:33.805Z,30.03
2018-12-18T00:29:01.466Z,28.97
2018-12-18T00:31:29.244Z,30.23
2018-12-18T00:33:56.817Z,31.57
2018-12-18T00:36:24.413Z,32.60
2018-12-18T00:38:52.114Z,31.67
2018-12-18T00:41:19.729Z,32.20
2018-12-18T00:43:47.312Z,32.17
2018-12-18T00:46:15.191Z,30.30
2018-12-18T00:48:42.767Z,31.37
2018-12-18T00:51:10.360Z,31.70
2018-12-18T00:53:38.006Z,33.10
2018-12-18T00:56:05.585Z,34.07
2018-12-18T00:58:33.152Z,34.50
2018-12-18T01:01:00.878Z,32.43
2018-12-18T01:03:28.481Z,32.10
2018-12-18T01:05:56.073Z,33.53
2018-12-18T01:08:23.846Z,33.37
2018-12-18T01:10:53.408Z,32.17
2018-12-18T01:13:20.996Z,32.77
2018-12-18T01:15:48.726Z,31.90
2018-12-18T01:18:16.306Z,32.77
2018-12-18T01:20:43.875Z,33.97
2018-12-18T01:23:11.576Z,35.97
2018-12-18T01:25:39.163Z,34.33
2018-12-18T01:28:06.737Z,34.40
2018-12-18T01:30:34.520Z,34.03
2018-12-18T01:33:02.088Z,35.90
2018-12-18T01:35:29.662Z,34.60
2018-12-18T01:37:57.525Z,36.73
2018-12-18T01:40:25.160Z,36.80
2018-12-18T01:42:52.744Z,37.70
2018-12-18T01:45:20.462Z,36.10
2018-12-18T01:47:48.037Z,36.63
2018-12-18T01:50:15.617Z,36.77
2018-12-18T01:52:43.319Z,34.33
2018-12-18T01:55:10.884Z,35.53
2018-12-18T01:57:38.464Z,34.50
2018-12-18T02:00:06.477Z,36.73
2018-12-18T02:02:34.063Z,37.10
2018-12-18T02:05:01.655Z,36.87
2018-12-18T02:07:29.570Z,35.37
2018-12-18T02:09:57.181Z,38.47
2018-12-18T02:12:24.801Z,35.97
2018-12-18T02:14:52.658Z,36.87
2018-12-18T02:17:20.230Z,36.00
2018-12-18T02:19:47.818Z,37.70
2018-12-18T02:22:15.442Z,35.47
2018-12-18T02:24:43.020Z,36.47
2018-12-18T02:27:10.589Z,37.07
2018-12-18T02:29:38.313Z,38.77
2018-12-18T02:32:05.900Z,37.00
2018-12-18T02:34:33.473Z,38.07
2018-12-18T02:37:01.213Z,37.93
2018-12-18T02:39:28.794Z,37.47
2018-12-18T02:41:56.383Z,37.30
2018-12-18T02:44:24.018Z,39.23
2018-12-18T02:46:51.592Z,37.63
2018-12-18T02:49:19.199Z,36.23
2018-12-18T02:51:47.024Z,36.30
2018-12-18T02:54:14.590Z,35.40
2018-12-18T02:56:42.160Z,35.60
2018-12-18T02:59:09.868Z,33.50
2018-12-18T03:01:37.464Z,33.83
2018-12-18T03:04:05.061Z,34.23
2018-12-18T03:06:32.809Z,33.10
2018-12-18T03:09:00.390Z,34.67
2018-12-18T03:11:27.961Z,35.57
2018-12-18T03:13:55.815Z,39.93
2018-12-18T03:16:23.397Z,38.97
2018-12-18T03:18:50.986Z,35.13
2018-12-18T03:24:13.858Z,31.60
2018-12-18T03:26:41.788Z,32.53
2018-12-18T03:29:09.426Z,33.43
2018-12-18T03:31:37.047Z,32.77
2018-12-18T03:34:04.753Z,32.80
2018-12-18T03:36:32.344Z,33.37
2018-12-18T03:38:59.915Z,32.27
2018-12-18T03:41:27.670Z,33.47
2018-12-18T03:43:55.249Z,33.43
2018-12-18T03:46:22.856Z,35.20
2018-12-18T03:48:50.567Z,33.97
2018-12-18T03:51:30.789Z,35.10
2018-12-18T03:53:58.517Z,35.23
2018-12-18T03:56:26.099Z,34.93
2018-12-18T03:58:53.689Z,39.33
2018-12-18T04:01:21.473Z,35.17
2018-12-18T04:03:49.067Z,36.70
2018-12-18T04:06:16.649Z,38.50
2018-12-18T04:08:45.197Z,41.23
2018-12-18T04:11:12.814Z,40.90
2018-12-18T04:13:40.409Z,39.17
2018-12-18T04:16:08.154Z,37.33
2018-12-18T04:18:35.739Z,35.40
2018-12-18T04:21:03.351Z,36.97
2018-12-18T04:23:31.007Z,35.77
2018-12-18T04:25:58.602Z,64.00
2018-12-18T04:28:26.185Z,56.10
2018-12-18T04:30:54.918Z,266.73
2018-12-18T04:33:22.490Z,87.80
2018-12-18T04:35:50.087Z,42.77
2018-12-18T04:38:17.744Z,24.57
2018-12-18T04:40:45.341Z,26.37
2018-12-18T04:43:12.910Z,26.30
2018-12-18T04:45:40.731Z,25.10
2018-12-18T04:48:08.304Z,25.73
2018-12-18T04:50:35.885Z,24.77
2018-12-18T04:53:03.756Z,24.67
2018-12-18T04:55:31.336Z,25.10
2018-12-18T04:57:58.918Z,24.00
2018-12-18T05:00:26.618Z,27.33
2018-12-18T05:02:54.217Z,26.53
2018-12-18T05:05:21.806Z,26.40
2018-12-18T05:07:49.535Z,26.53
2018-12-18T05:10:17.131Z,25.77
2018-12-18T05:12:44.719Z,25.53
2018-12-18T05:15:12.387Z,27.00
2018-12-18T05:17:39.964Z,25.80
2018-12-18T05:20:07.602Z,26.47
2018-12-18T05:22:35.210Z,26.10
2018-12-18T05:25:03.049Z,25.17
2018-12-18T05:27:30.638Z,27.00
2018-12-18T05:29:58.674Z,26.00
2018-12-18T05:32:26.321Z,24.43
2018-12-18T05:34:56.696Z,21.70
2018-12-18T05:37:21.584Z,22.40
2018-12-18T05:39:49.242Z,23.30
2018-12-18T05:42:16.832Z,23.77
2018-12-18T05:44:44.694Z,23.63
2018-12-18T05:47:12.301Z,32.43
2018-12-18T05:49:39.881Z,40.33
2018-12-18T05:52:07.646Z,53.43
2018-12-18T05:54:35.253Z,40.80
2018-12-18T05:57:02.854Z,33.50
2018-12-18T05:59:30.477Z,32.90
2018-12-18T06:01:58.045Z,28.20
2018-12-18T06:04:25.614Z,28.00
2018-12-18T06:06:53.586Z,28.57
2018-12-18T06:09:21.162Z,33.03
2018-12-18T06:11:48.746Z,34.57
2018-12-18T06:14:16.724Z,29.57
2018-12-18T06:16:44.303Z,37.10
2018-12-18T06:19:11.893Z,64.73
2018-12-18T06:21:40.296Z,39.30
2018-12-18T06:24:07.883Z,38.57
2018-12-18T06:26:35.535Z,35.97
2018-12-18T06:29:03.260Z,32.43
2018-12-18T06:31:30.839Z,34.43
2018-12-18T06:33:58.418Z,28.67
2018-12-18T06:36:26.378Z,27.50
2018-12-18T06:38:53.973Z,29.37
2018-12-18T06:41:21.550Z,31.93
2018-12-18T06:43:49.313Z,27.87
2018-12-18T06:46:16.888Z,28.43
2018-12-18T06:48:44.473Z,29.10
2018-12-18T06:51:12.348Z,25.40
2018-12-18T06:53:39.914Z,25.00
2018-12-18T06:56:07.500Z,24.23
2018-12-18T06:58:35.443Z,23.70
2018-12-18T07:01:03.040Z,25.70
2018-12-18T07:03:30.629Z,28.97
2018-12-18T07:05:58.425Z,30.73
2018-12-18T07:08:25.999Z,30.20
2018-12-18T07:10:53.580Z,30.53
2018-12-18T07:13:21.301Z,28.03
2018-12-18T07:15:48.885Z,30.73
2018-12-18T07:18:16.468Z,29.50
2018-12-18T07:20:44.113Z,30.00
2018-12-18T07:23:11.702Z,27.17
2018-12-18T07:25:39.282Z,26.57
2018-12-18T07:28:07.023Z,24.57
2018-12-18T07:30:34.662Z,25.23
2018-12-18T07:33:02.247Z,28.80
2018-12-18T07:35:30.001Z,34.00
2018-12-18T07:37:57.588Z,28.83
2018-12-18T07:40:25.180Z,36.33
2018-12-18T07:42:52.957Z,44.03
2018-12-18T07:45:20.548Z,29.63
2018-12-18T07:47:48.137Z,40.13
2018-12-18T07:50:15.858Z,24.73
2018-12-18T07:52:43.442Z,20.67
2018-12-18T07:55:11.050Z,22.80
2018-12-18T07:57:38.876Z,21.57
2018-12-18T08:00:06.544Z,28.67
2018-12-18T08:02:34.137Z,26.97
2018-12-18T08:05:01.777Z,23.77
2018-12-18T08:07:29.341Z,25.93
2018-12-18T08:09:56.930Z,31.67
2018-12-18T08:12:27.561Z,28.27
2018-12-18T08:14:55.138Z,23.73
2018-12-18T08:17:22.705Z,25.20
2018-12-18T08:19:50.735Z,29.33
2018-12-18T08:22:18.318Z,27.47
2018-12-18T08:24:45.897Z,32.37
2018-12-18T08:27:13.828Z,28.53
2018-12-18T08:29:41.406Z,28.90
2018-12-18T08:32:09.613Z,26.83
2018-12-18T08:34:36.921Z,27.33
2018-12-18T08:37:04.506Z,32.27
2018-12-18T08:39:32.094Z,25.77
2018-12-18T08:41:59.945Z,24.27
2018-12-18T08:44:27.533Z,30.03
2018-12-18T08:46:55.145Z,39.23
2018-12-18T08:49:22.843Z,35.00
2018-12-18T08:51:50.422Z,28.40
2018-12-18T08:54:18.003Z,27.17
2018-12-18T08:56:45.793Z,29.13
2018-12-18T08:59:13.369Z,29.53
2018-12-18T09:01:40.959Z,26.73
2018-12-18T09:04:08.681Z,31.37
2018-12-18T09:06:36.265Z,32.63
2018-12-18T09:09:03.982Z,37.03
2018-12-18T09:11:31.598Z,62.30
2018-12-18T09:13:59.169Z,41.07
2018-12-18T09:16:32.493Z,33.60
2018-12-18T09:19:00.077Z,30.33
2018-12-18T09:21:27.691Z,36.10
2018-12-18T09:23:55.727Z,46.80
2018-12-18T09:26:23.297Z,45.07
2018-12-18T09:28:50.950Z,40.10
2018-12-18T09:31:18.599Z,40.10
2018-12-18T09:33:46.177Z,33.57
2018-12-18T09:36:13.762Z,31.17
2018-12-18T09:41:40.205Z,37.00
2018-12-18T09:44:08.039Z,31.23
2018-12-18T09:46:35.628Z,31.03
2018-12-18T09:49:03.269Z,27.40
2018-12-18T09:51:31.006Z,25.63
2018-12-18T09:53:58.601Z,24.40
2018-12-18T09:56:26.200Z,25.97
2018-12-18T09:58:54.078Z,23.67
2018-12-18T10:01:21.679Z,26.87
2018-12-18T10:03:49.260Z,25.73
2018-12-18T10:06:17.037Z,24.47
2018-12-18T10:08:44.625Z,26.00
2018-12-18T10:11:12.289Z,27.60
2018-12-18T10:13:40.061Z,25.83
2018-12-18T10:16:07.707Z,25.80
2018-12-18T10:18:35.291Z,26.87
2018-12-18T10:21:03.158Z,26.63
2018-12-18T10:23:30.739Z,23.63
2018-12-18T10:25:58.338Z,25.43
2018-12-18T10:28:26.190Z,27.87
2018-12-18T10:30:54.770Z,25.50
2018-12-18T10:33:22.369Z,28.87
2018-12-18T10:35:50.194Z,32.23
2018-12-18T10:38:17.792Z,28.57
2018-12-18T10:40:45.373Z,27.67
2018-12-18T10:43:13.008Z,24.83
2018-12-18T10:45:40.606Z,24.87
2018-12-18T10:48:08.207Z,28.50
2018-12-18T10:50:35.970Z,28.77
2018-12-18T10:53:03.572Z,24.63
2018-12-18T10:55:31.166Z,29.47
2018-12-18T10:57:58.905Z,26.43
2018-12-18T11:00:32.160Z,26.77
2018-12-18T11:02:59.802Z,24.50
2018-12-18T11:05:27.401Z,25.37
2018-12-18T11:07:55.001Z,25.00
2018-12-18T11:10:22.765Z,29.57
2018-12-18T11:12:55.886Z,32.80
2018-12-18T11:15:23.780Z,33.57
2018-12-18T11:17:51.372Z,44.93
2018-12-18T11:20:18.951Z,34.67
2018-12-18T11:22:46.706Z,25.30
2018-12-18T11:25:14.361Z,22.93
2018-12-18T11:27:42.045Z,21.27
2018-12-18T11:30:10.056Z,24.67
2018-12-18T11:32:37.645Z,25.00
2018-12-18T11:35:05.311Z,24.43
2018-12-18T11:37:33.089Z,26.33
2018-12-18T11:40:00.675Z,26.77
2018-12-18T11:42:28.262Z,21.23
2018-12-18T11:44:56.246Z,22.30
2018-12-18T11:47:23.841Z,22.90
2018-12-18T11:49:51.426Z,26.17
2018-12-18T11:52:19.087Z,25.83
2018-12-18T11:54:46.692Z,25.30
2018-12-18T11:57:14.290Z,26.60
2018-12-18T11:59:42.271Z,23.83
2018-12-18T12:02:09.888Z,19.87
2018-12-18T12:04:37.490Z,23.37
2018-12-18T12:07:05.464Z,17.53
2018-12-18T12:09:33.091Z,20.40
2018-12-18T12:12:00.687Z,19.50
2018-12-18T12:14:28.409Z,17.73
2018-12-18T12:16:56.012Z,21.60
2018-12-18T12:19:23.627Z,25.53
2018-12-18T12:21:51.385Z,34.10
2018-12-18T12:24:18.989Z,20.83
2018-12-18T12:26:46.663Z,20.80
2018-12-18T12:29:14.786Z,23.00
2018-12-18T12:31:42.404Z,17.37
2018-12-18T12:34:09.989Z,17.30
2018-12-18T12:36:37.718Z,21.90
2018-12-18T12:39:05.424Z,22.47
2018-12-18T12:41:33.021Z,28.03
2018-12-18T12:44:00.840Z,25.43
2018-12-18T12:46:28.444Z,20.20
2018-12-18T12:48:56.054Z,39.63
2018-12-18T12:51:23.990Z,28.17
2018-12-18T12:53:51.575Z,23.63
2018-12-18T12:56:19.186Z,22.73
2018-12-18T12:58:47.068Z,27.60
2018-12-18T13:01:23.771Z,25.47
2018-12-18T13:03:51.598Z,30.53
2018-12-18T13:06:19.218Z,27.37
2018-12-18T13:08:46.876Z,25.30
2018-12-18T13:11:14.501Z,22.40
2018-12-18T13:13:42.102Z,20.43
2018-12-18T13:16:09.697Z,33.23
2018-12-18T13:18:37.370Z,36.83
2018-12-18T13:21:04.991Z,38.00
2018-12-18T13:23:32.585Z,26.60
2018-12-18T13:26:01.219Z,27.40
2018-12-18T13:28:28.792Z,35.37
2018-12-18T13:31:08.589Z,33.10
2018-12-18T13:33:36.173Z,29.90
2018-12-18T13:36:03.848Z,27.07
2018-12-18T13:38:31.682Z,34.03
2018-12-18T13:40:59.382Z,34.90
2018-12-18T13:43:26.979Z,26.87
2018-12-18T13:45:54.841Z,32.70
2018-12-18T13:48:22.458Z,39.73
2018-12-18T13:50:50.070Z,36.27
2018-12-18T13:53:17.812Z,44.83
2018-12-18T13:55:45.408Z,33.10
2018-12-18T13:58:13.012Z,46.77
2018-12-18T14:00:41.223Z,42.37
2018-12-18T14:03:08.808Z,32.00
2018-12-18T14:05:36.414Z,31.00
2018-12-18T14:08:04.112Z,30.77
2018-12-18T14:10:31.702Z,32.43
2018-12-18T14:12:59.309Z,29.80
2018-12-18T14:15:27.757Z,28.70
2018-12-18T14:17:55.423Z,26.07
2018-12-18T14:20:23.703Z,42.60
2018-12-18T14:22:51.454Z,31.50
2018-12-18T14:25:19.068Z,32.23
2018-12-18T14:27:46.674Z,28.67
2018-12-18T14:30:14.449Z,40.90
2018-12-18T14:32:42.061Z,29.87
2018-12-18T14:35:09.698Z,29.07
2018-12-18T14:37:37.454Z,36.50
2018-12-18T14:40:05.134Z,38.07
2018-12-18T14:42:32.745Z,41.40
2018-12-18T14:45:00.388Z,65.50
2018-12-18T14:47:27.997Z,44.93
2018-12-18T14:49:55.660Z,80.63
2018-12-18T14:52:23.342Z,47.20
2018-12-18T14:54:50.955Z,53.47
2018-12-18T14:57:18.582Z,43.63
2018-12-18T14:59:46.372Z,49.07
2018-12-18T15:02:13.974Z,56.10
2018-12-18T15:04:41.578Z,70.13
2018-12-18T15:07:09.501Z,63.77
2018-12-18T15:09:37.120Z,53.03
2018-12-18T15:12:04.801Z,41.43
2018-12-18T15:14:32.913Z,38.47
2018-12-18T15:17:00.522Z,37.30
2018-12-18T15:19:28.146Z,45.83
2018-12-18T15:21:55.813Z,50.77
2018-12-18T15:24:23.412Z,45.93
2018-12-18T15:26:51.010Z,49.47
2018-12-18T15:29:18.772Z,42.43
2018-12-18T15:31:46.407Z,44.50
2018-12-18T15:34:14.032Z,46.33
2018-12-18T15:36:41.749Z,39.60
2018-12-18T15:39:09.351Z,45.20
2018-12-18T15:41:36.945Z,44.93
2018-12-18T15:44:04.612Z,44.50
2018-12-18T15:46:32.215Z,46.83
2018-12-18T15:48:59.817Z,54.73
2018-12-18T15:51:27.582Z,59.10
2018-12-18T15:53:55.160Z,57.30
2018-12-18T15:56:22.751Z,49.87
2018-12-18T15:58:50.520Z,75.00
2018-12-18T16:01:18.150Z,70.10
2018-12-18T16:03:45.756Z,65.87
2018-12-18T16:06:13.521Z,61.70
2018-12-18T16:08:41.140Z,72.23
2018-12-18T16:11:08.868Z,62.43
2018-12-18T16:13:36.551Z,62.40
2018-12-18T16:16:04.248Z,64.90
2018-12-18T16:18:31.859Z,81.53
2018-12-18T16:20:59.713Z,100.63
2018-12-18T16:23:27.312Z,93.73
2018-12-18T16:25:54.930Z,108.30
2018-12-18T16:28:22.801Z,93.83
2018-12-18T16:30:51.148Z,83.20
2018-12-18T16:33:18.802Z,71.07
2018-12-18T16:35:46.544Z,74.43
2018-12-18T16:38:14.126Z,125.03
2018-12-18T16:40:41.733Z,87.93
2018-12-18T16:43:09.516Z,73.93
2018-12-18T16:45:37.127Z,86.53
2018-12-18T16:48:04.777Z,79.60
2018-12-18T16:50:32.446Z,63.03
2018-12-18T16:53:00.045Z,82.53
2018-12-18T16:55:27.641Z,87.07
2018-12-18T16:57:55.300Z,81.10
2018-12-18T17:00:22.914Z,92.33
2018-12-18T17:02:50.513Z,143.50
2018-12-18T17:05:18.549Z,101.27
2018-12-18T17:07:46.141Z,195.20
2018-12-18T17:10:13.775Z,184.43
2018-12-18T17:12:41.698Z,221.53
2018-12-18T17:15:09.331Z,212.93
2018-12-18T17:17:36.946Z,174.30
2018-12-18T17:20:04.810Z,183.73
2018-12-18T17:22:32.397Z,67.60
2018-12-18T17:24:59.995Z,51.57
2018-12-18T17:27:27.633Z,47.90
2018-12-18T17:29:55.221Z,43.70
2018-12-18T17:32:22.836Z,41.60
2018-12-18T17:34:50.469Z,40.43
2018-12-18T17:37:18.061Z,42.37
2018-12-18T17:39:45.672Z,39.03
2018-12-18T17:42:13.675Z,45.00
2018-12-18T17:44:41.282Z,42.07
2018-12-18T17:47:08.897Z,40.67
2018-12-18T17:49:36.699Z,43.20
2018-12-18T17:52:04.317Z,49.50
2018-12-18T17:54:31.906Z,46.87
2018-12-18T17:56:59.541Z,38.57
2018-12-18T17:59:27.153Z,47.00
2018-12-18T18:01:54.785Z,35.57
2018-12-18T18:04:22.552Z,37.37
2018-12-18T18:06:50.159Z,36.40
2018-12-18T18:09:17.761Z,33.87
2018-12-18T18:11:45.546Z,40.67
2018-12-18T18:14:13.163Z,36.17
2018-12-18T18:16:40.753Z,39.93
2018-12-18T18:19:08.538Z,47.10
2018-12-18T18:21:36.135Z,45.40
2018-12-18T18:24:03.739Z,43.93
2018-12-18T18:26:32.280Z,46.57
2018-12-18T18:28:59.460Z,56.20
2018-12-18T18:31:27.063Z,63.03
2018-12-18T18:33:54.742Z,57.33
2018-12-18T18:36:22.348Z,73.77
2018-12-18T18:38:49.961Z,55.53
2018-12-18T18:41:31.716Z,65.93
2018-12-18T18:43:59.326Z,45.97
2018-12-18T18:46:26.924Z,55.60
2018-12-18T18:48:54.893Z,56.70
2018-12-18T18:51:22.494Z,51.60
2018-12-18T18:53:50.117Z,50.07
2018-12-18T18:56:17.879Z,52.33
2018-12-18T18:58:45.436Z,50.47
2018-12-18T19:01:12.999Z,53.20
2018-12-18T19:03:40.975Z,75.53
2018-12-18T19:06:08.566Z,73.60
2018-12-18T19:08:36.109Z,65.50
2018-12-18T19:11:14.195Z,57.33
2018-12-18T19:13:41.768Z,66.60
2018-12-18T19:16:09.322Z,71.87
2018-12-18T19:18:36.981Z,52.43
2018-12-18T19:21:04.538Z,71.47
2018-12-18T19:23:32.102Z,60.87
2018-12-18T19:25:59.917Z,63.13
2018-12-18T19:28:27.469Z,123.87
2018-12-18T19:30:56.036Z,134.03
2018-12-18T19:33:23.705Z,103.77
2018-12-18T19:35:51.263Z,74.87
2018-12-18T19:38:18.817Z,81.90
2018-12-18T19:40:46.519Z,97.80
2018-12-18T19:43:14.105Z,99.73
2018-12-18T19:45:41.666Z,84.93
2018-12-18T19:48:09.405Z,68.67
2018-12-18T19:50:36.991Z,59.73
2018-12-18T19:53:04.549Z,40.10
2018-12-18T19:55:32.420Z,41.57
2018-12-18T19:57:59.987Z,51.57
2018-12-18T20:00:27.504Z,44.37
2018-12-18T20:02:55.433Z,38.33
2018-12-18T20:05:23.022Z,33.13
2018-12-18T20:07:50.558Z,34.70
2018-12-18T20:10:18.248Z,36.37
2018-12-18T20:12:45.810Z,78.37
2018-12-18T20:15:13.413Z,82.17
2018-12-18T20:17:41.254Z,46.63
2018-12-18T20:20:08.877Z,38.23
2018-12-18T20:22:36.439Z,32.93
2018-12-18T20:25:04.177Z,95.00
2018-12-18T20:27:31.716Z,34.53
2018-12-18T20:29:59.322Z,39.90
2018-12-18T20:32:27.057Z,27.47
2018-12-18T20:34:54.604Z,37.63
2018-12-18T20:37:22.132Z,29.13
2018-12-18T20:39:49.797Z,35.27
2018-12-18T20:42:17.365Z,30.47
2018-12-18T20:44:44.923Z,25.97
2018-12-18T20:47:12.633Z,28.03
2018-12-18T20:49:40.867Z,30.83
2018-12-18T20:52:07.786Z,28.63
2018-12-18T20:54:35.498Z,29.77
2018-12-18T20:57:03.030Z,67.00
2018-12-18T20:59:30.590Z,65.30
2018-12-18T21:01:58.464Z,71.50
2018-12-18T21:04:26.013Z,40.67
2018-12-18T21:06:53.591Z,41.83
2018-12-18T21:09:21.644Z,44.33
2018-12-18T21:11:49.173Z,35.87
2018-12-18T21:14:16.742Z,33.17
2018-12-18T21:16:44.431Z,38.43
2018-12-18T21:19:12.026Z,30.63
2018-12-18T21:21:39.580Z,31.47
2018-12-18T21:24:07.542Z,33.43
2018-12-18T21:26:35.094Z,52.97
2018-12-18T21:29:02.654Z,46.03
2018-12-18T21:31:30.623Z,53.50
2018-12-18T21:33:58.186Z,55.23
2018-12-18T21:36:25.775Z,40.87
2018-12-18T21:38:53.507Z,73.30
2018-12-18T21:41:24.163Z,74.63
2018-12-18T21:43:51.721Z,89.77
2018-12-18T21:46:19.349Z,90.40
2018-12-18T21:48:46.905Z,59.83
2018-12-18T21:51:17.983Z,58.87
2018-12-18T21:53:45.557Z,63.93
2018-12-18T21:56:13.109Z,46.40
2018-12-18T21:58:40.673Z,55.13
2018-12-18T22:01:08.547Z,53.50
2018-12-18T22:03:36.097Z,62.00
2018-12-18T22:06:03.661Z,37.50
2018-12-18T22:08:36.828Z,47.47
2018-12-18T22:11:05.973Z,40.10
2018-12-18T22:13:33.740Z,30.97
2018-12-18T22:16:01.306Z,27.27
2018-12-18T22:18:28.852Z,28.13
2018-12-18T22:20:56.476Z,26.47
2018-12-18T22:23:24.020Z,26.47
2018-12-18T22:25:51.566Z,26.80
2018-12-18T22:28:19.237Z,26.97
2018-12-18T22:30:46.801Z,25.93
2018-12-18T22:33:14.408Z,25.27
2018-12-18T22:35:42.316Z,27.37
2018-12-18T22:38:09.877Z,23.33
2018-12-18T22:40:37.436Z,22.60
2018-12-18T22:43:05.096Z,27.33
2018-12-18T22:45:32.640Z,28.70
2018-12-18T22:48:00.186Z,38.73
2018-12-18T22:50:27.901Z,28.43
2018-12-18T22:52:55.468Z,39.40
2018-12-18T22:55:23.046Z,28.53
2018-12-18T22:57:50.722Z,27.03
2018-12-18T23:00:23.966Z,25.27
2018-12-18T23:02:51.676Z,22.93
2018-12-18T23:05:19.256Z,25.30
2018-12-18T23:07:46.794Z,28.07
2018-12-18T23:10:14.421Z,23.43
2018-12-18T23:12:41.962Z,24.07
2018-12-18T23:15:09.538Z,25.77
2018-12-18T23:17:37.157Z,24.57
2018-12-18T23:20:04.782Z,21.00
2018-12-18T23:22:32.355Z,25.73
2018-12-18T23:25:00.067Z,23.77
2018-12-18T23:27:27.621Z,22.83
2018-12-18T23:29:55.169Z,24.20
2018-12-18T23:32:22.908Z,24.90
2018-12-18T23:34:50.449Z,21.53
2018-12-18T23:37:18.005Z,21.77
2018-12-18T23:39:46.234Z,24.10
2018-12-18T23:42:13.777Z,24.17
2018-12-18T23:44:41.355Z,22.53
2018-12-18T23:47:09.222Z,21.63
2018-12-18T23:49:36.794Z,21.07
2018-12-18T23:52:04.365Z,21.63
2018-12-18T23:54:32.077Z,23.67
2018-12-18T23:56:59.649Z,22.27
2018-12-18T23:59:27.206Z,21.13
